aviador You're here:

KVTI Decoded Metar

VINTON in IA, USA
Report Time2017-07-24 16:15:00
UTC Time2017-07-24 16:32:36
Flight Rules mvfr MVFR
Wind090° at 05 kt
W.Decomp.*RWY 09: 5.0 kt HW 0.1 kt LCW
RWY 16: 1.6 kt HW 4.7 kt LCW
W.Rank090° ranks 25
Current wind is below 090° avg. (7.0)
Visibility9999 m
Phenomena:N/A
Clouds:Scattered 017 Hf
Broken 024 Hf
Broken 029 Hf
Expected CloudBase > 2,800 ft AGL from Temp-Dew spread
Ceiling2,400 ft
Temp25°C (ISA +12)
Dew Point18°C (65% RH)
QNH1018 hPa
Density Alt2,293 ft
Elevation837 ft
Report Wrong Elevation
Raw Report
KVTI 241615Z AUTO 09005KT 10SM SCT017 BKN024 BKN029 25/18 A3005
RMK AO2 T02450180=

Extra information for KVTI:More info

Metar Taf Metar & Taf Last 4 Metars F.Rules Stats Wind Profile Meteogram Temp Stats Airport Information Weather charts Add Link Nearby VenuesMetar ALERT Operation Metar Decoded Social comments

AIRNAV info for KVTI